Time;durP1;ratioP1;P1;durP2;ratioP2;P2;SDS_P1;SDS_P2;PMS_P1;PMS_P2;Temp;Humidity;BMP_temperature;BMP_pressure;BME280_temperature;BME280_humidity;BME280_pressure;Samples;Min_cycle;Max_cycle;Signal;HPM_P1;HPM_P2
2022/10/01 00:00:36;;;;;;;8.73;6.13;;;13.40;54.10;;;;;;5098940;27;20533;-91
2022/10/01 00:03:03;;;;;;;9.93;5.47;;;13.40;54.10;;;;;;5081539;27;20499;-91
2022/10/01 00:05:31;;;;;;;6.80;5.20;;;13.40;53.70;;;;;;5070398;27;20466;-90
2022/10/01 00:07:58;;;;;;;7.20;5.67;;;13.30;53.50;;;;;;5063336;27;20523;-90
2022/10/01 00:10:25;;;;;;;8.00;5.30;;;13.30;53.80;;;;;;5067551;27;20898;-92
2022/10/01 00:12:52;;;;;;;7.30;5.80;;;13.20;53.90;;;;;;5071026;28;20461;-91
2022/10/01 00:15:20;;;;;;;6.97;5.90;;;13.20;54.00;;;;;;5065949;27;20561;-90
2022/10/01 00:17:47;;;;;;;8.43;5.87;;;13.30;54.00;;;;;;5096403;27;20446;-90
2022/10/01 00:20:14;;;;;;;9.73;5.83;;;13.30;53.90;;;;;;5084298;27;20449;-90
2022/10/01 00:22:42;;;;;;;7.57;6.10;;;13.20;53.80;;;;;;5088618;27;20469;-90
2022/10/01 00:25:10;;;;;;;7.50;5.93;;;13.20;53.70;;;;;;5117139;27;20573;-91
2022/10/01 00:27:37;;;;;;;5.90;5.23;;;13.20;53.70;;;;;;5083580;27;20816;-89
2022/10/01 00:30:05;;;;;;;10.47;6.63;;;13.10;53.80;;;;;;5086238;27;20798;-89
2022/10/01 00:32:32;;;;;;;10.37;6.50;;;13.20;54.20;;;;;;5089006;27;20451;-90
2022/10/01 00:35:01;;;;;;;13.30;6.33;;;13.20;54.80;;;;;;5069342;27;20519;-91
2022/10/01 00:37:28;;;;;;;28.77;7.73;;;13.10;55.10;;;;;;5064051;27;20506;-89
2022/10/01 00:39:56;;;;;;;121.20;10.83;;;13.10;55.10;;;;;;5090758;27;20434;-91
2022/10/01 00:42:26;;;;;;;75.17;12.20;;;13.00;56.10;;;;;;5100610;27;20459;-90
2022/10/01 00:44:54;;;;;;;11.83;8.30;;;12.70;57.30;;;;;;5102406;27;20496;-92
2022/10/01 00:47:27;;;;;;;11.00;7.83;;;12.50;58.20;;;;;;5101876;27;20452;-90
2022/10/01 00:50:00;;;;;;;15.33;7.30;;;12.50;58.20;;;;;;5101466;27;20438;-90
2022/10/01 00:52:31;;;;;;;15.57;7.30;;;12.70;57.40;;;;;;5100147;27;20478;-91
2022/10/01 00:55:04;;;;;;;8.97;6.47;;;12.90;57.30;;;;;;5074051;27;20477;-90
2022/10/01 00:57:32;;;;;;;14.27;7.50;;;13.00;57.10;;;;;;5082558;28;20963;-91
2022/10/01 01:00:05;;;;;;;127.53;15.03;;;13.00;56.80;;;;;;5074890;27;20455;-92
2022/10/01 01:02:32;;;;;;;13.30;7.60;;;13.00;57.20;;;;;;5098201;27;20451;-91
2022/10/01 01:05:00;;;;;;;26.87;8.20;;;12.90;57.40;;;;;;5086403;27;20470;-91
2022/10/01 01:07:28;;;;;;;32.63;10.00;;;12.90;57.50;;;;;;5117609;27;20445;-90
2022/10/01 01:09:55;;;;;;;15.43;7.73;;;13.00;57.30;;;;;;5086211;27;20533;-90
2022/10/01 01:12:40;;;;;;;48.73;9.90;;;13.10;57.20;;;;;;5115515;27;20445;-91
2022/10/01 01:15:16;;;;;;;22.60;8.90;;;13.10;56.80;;;;;;5107192;27;20973;-91
2022/10/01 01:17:54;;;;;;;17.37;7.67;;;13.00;58.00;;;;;;5099991;27;20880;-91
2022/10/01 01:20:40;;;;;;;13.40;7.60;;;12.80;57.50;;;;;;5120089;27;20479;-90
2022/10/01 01:23:26;;;;;;;25.73;8.40;;;12.80;57.60;;;;;;5100350;27;20449;-90
2022/10/01 01:26:00;;;;;;;15.23;8.37;;;12.90;57.40;;;;;;5120273;27;20459;-90
2022/10/01 01:28:32;;;;;;;19.40;9.30;;;13.00;57.40;;;;;;5119361;27;20449;-90
2022/10/01 01:31:03;;;;;;;29.30;8.10;;;13.00;57.50;;;;;;5102228;27;20426;-91
2022/10/01 01:33:34;;;;;;;85.77;11.20;;;13.00;57.50;;;;;;5118761;27;20435;-90
2022/10/01 01:36:05;;;;;;;16.13;7.80;;;13.10;57.40;;;;;;5121531;27;20472;-93
2022/10/01 01:38:37;;;;;;;25.23;9.13;;;13.10;57.10;;;;;;5118808;27;20511;-91
2022/10/01 01:41:06;;;;;;;19.67;7.97;;;13.10;57.50;;;;;;5117188;27;20443;-90
2022/10/01 01:43:38;;;;;;;12.83;7.97;;;13.00;57.40;;;;;;5115488;27;21181;-89
2022/10/01 01:46:07;;;;;;;28.37;9.03;;;13.00;57.40;;;;;;5117992;27;20492;-90
2022/10/01 01:48:37;;;;;;;92.43;11.07;;;12.90;57.20;;;;;;5088075;27;20437;-91
2022/10/01 01:51:11;;;;;;;11.70;7.77;;;12.70;57.00;;;;;;5106783;27;20447;-90
2022/10/01 01:53:38;;;;;;;11.23;7.40;;;12.60;57.70;;;;;;5118025;27;20930;-92
2022/10/01 01:56:06;;;;;;;9.87;7.37;;;12.70;56.80;;;;;;5096081;27;20475;-90
2022/10/01 01:58:35;;;;;;;9.40;6.73;;;12.70;56.90;;;;;;5115966;27;20458;-94
2022/10/01 02:01:04;;;;;;;9.77;7.20;;;12.80;56.90;;;;;;5117382;27;20512;-91
2022/10/01 02:03:34;;;;;;;16.67;7.80;;;12.80;56.60;;;;;;5100763;27;20460;-91
2022/10/01 02:06:12;;;;;;;13.03;7.40;;;12.90;56.80;;;;;;5111591;27;20820;-90
2022/10/01 02:08:48;;;;;;;10.20;7.07;;;12.90;56.60;;;;;;5107022;27;20453;-90
2022/10/01 02:11:28;;;;;;;12.50;8.30;;;12.70;57.00;;;;;;5090477;27;20442;-91
2022/10/01 02:14:07;;;;;;;11.13;7.50;;;12.70;57.50;;;;;;5123726;27;20953;-89
2022/10/01 02:16:45;;;;;;;15.57;7.43;;;12.70;57.50;;;;;;5106456;27;20992;-91
2022/10/01 02:19:19;;;;;;;10.80;7.43;;;12.80;57.30;;;;;;5082062;27;20643;-92
2022/10/01 02:21:56;;;;;;;7.73;6.73;;;12.60;57.40;;;;;;5117857;27;20442;-90
2022/10/01 02:24:31;;;;;;;8.73;6.40;;;12.50;58.20;;;;;;5103297;27;20460;-92
2022/10/01 02:27:01;;;;;;;10.13;7.20;;;12.50;57.30;;;;;;5104375;27;20446;-92
2022/10/01 02:29:29;;;;;;;13.67;9.17;;;12.40;59.10;;;;;;5097981;28;20450;-91
2022/10/01 02:31:57;;;;;;;11.53;7.60;;;12.40;58.80;;;;;;5105558;27;20449;-90
2022/10/01 02:34:28;;;;;;;7.50;6.77;;;12.60;58.30;;;;;;5122705;27;20508;-91
2022/10/01 02:36:58;;;;;;;11.67;7.07;;;12.70;57.80;;;;;;5124493;27;20458;-91
2022/10/01 02:39:29;;;;;;;9.23;6.50;;;12.70;58.00;;;;;;5113543;27;20453;-91
2022/10/01 02:41:57;;;;;;;32.37;8.73;;;12.70;58.20;;;;;;5106915;27;20450;-91
2022/10/01 02:44:36;;;;;;;9.77;7.57;;;12.80;58.10;;;;;;5113826;27;20546;-90
2022/10/01 02:47:07;;;;;;;10.03;7.00;;;12.90;58.00;;;;;;5088703;27;20489;-92
2022/10/01 02:49:35;;;;;;;19.43;7.60;;;12.90;57.80;;;;;;5096202;27;20439;-90
2022/10/01 02:52:08;;;;;;;55.50;12.30;;;13.00;57.50;;;;;;5096740;27;20547;-91
2022/10/01 02:54:42;;;;;;;12.63;7.50;;;13.00;57.20;;;;;;5105598;27;20470;-90
2022/10/01 02:57:26;;;;;;;11.33;7.77;;;12.60;58.80;;;;;;5099642;27;21162;-91
2022/10/01 02:59:57;;;;;;;12.90;9.13;;;12.40;59.00;;;;;;5113630;27;20450;-91
2022/10/01 03:02:26;;;;;;;11.83;7.80;;;12.50;59.10;;;;;;5086783;27;20989;-90
2022/10/01 03:04:54;;;;;;;12.70;8.13;;;12.60;58.70;;;;;;5118562;27;20480;-90
2022/10/01 03:07:21;;;;;;;15.77;7.93;;;12.70;58.30;;;;;;5114939;27;20976;-91
2022/10/01 03:09:49;;;;;;;12.13;7.93;;;12.80;58.00;;;;;;5098964;27;20950;-91
2022/10/01 03:12:17;;;;;;;10.63;8.23;;;12.80;58.00;;;;;;5105031;27;20442;-91
2022/10/01 03:14:44;;;;;;;13.13;8.20;;;12.90;57.50;;;;;;5097567;27;20498;-92
2022/10/01 03:17:14;;;;;;;9.63;7.57;;;12.90;57.60;;;;;;5079455;27;20462;-90
2022/10/01 03:19:41;;;;;;;10.70;7.70;;;12.80;58.00;;;;;;5098785;27;20983;-91
2022/10/01 03:22:11;;;;;;;17.20;7.87;;;12.80;58.20;;;;;;5100103;28;20540;-92
2022/10/01 03:24:38;;;;;;;14.40;7.93;;;12.90;57.90;;;;;;5065772;27;20469;-90
2022/10/01 03:27:05;;;;;;;15.27;8.90;;;12.80;58.00;;;;;;5114591;28;20438;-90
2022/10/01 03:29:32;;;;;;;14.33;8.00;;;12.70;58.50;;;;;;5081366;28;20959;-90
2022/10/01 03:31:59;;;;;;;12.20;7.20;;;12.60;59.00;;;;;;5067764;28;20438;-91
2022/10/01 03:34:28;;;;;;;9.43;6.50;;;12.70;59.30;;;;;;5084147;28;20455;-91
2022/10/01 03:36:55;;;;;;;7.83;6.47;;;12.80;58.20;;;;;;5069438;28;20467;-90
2022/10/01 03:39:22;;;;;;;13.80;8.10;;;12.90;57.70;;;;;;5083401;28;20442;-91
2022/10/01 03:41:48;;;;;;;10.10;7.87;;;12.70;58.40;;;;;;5095500;28;20485;-91
2022/10/01 03:44:16;;;;;;;9.50;7.73;;;12.50;59.60;;;;;;5080852;28;20469;-91
2022/10/01 03:46:43;;;;;;;11.50;8.13;;;12.40;60.10;;;;;;5115160;28;20579;-90
2022/10/01 03:49:10;;;;;;;11.50;8.27;;;12.50;60.10;;;;;;5079940;28;20455;-90
2022/10/01 03:51:39;;;;;;;12.30;8.83;;;12.70;60.60;;;;;;5086749;28;20471;-90
2022/10/01 03:54:07;;;;;;;10.50;7.50;;;12.70;60.50;;;;;;5091350;27;20450;-91
2022/10/01 03:56:34;;;;;;;7.53;6.70;;;12.70;62.30;;;;;;5080593;28;20469;-91
2022/10/01 03:59:02;;;;;;;12.07;7.77;;;12.80;60.80;;;;;;5100493;28;20452;-90
2022/10/01 04:01:29;;;;;;;9.50;7.10;;;12.90;60.20;;;;;;5095334;28;20545;-91
2022/10/01 04:03:56;;;;;;;11.13;7.37;;;13.00;59.90;;;;;;5115581;28;20950;-90
2022/10/01 04:06:23;;;;;;;7.93;6.33;;;13.00;59.60;;;;;;5098422;28;20458;-91
2022/10/01 04:08:52;;;;;;;13.90;6.90;;;13.00;59.20;;;;;;5081354;28;20450;-90
2022/10/01 04:11:20;;;;;;;14.10;7.60;;;12.80;61.10;;;;;;5078239;28;20839;-90
2022/10/01 04:13:47;;;;;;;14.83;7.57;;;12.80;61.00;;;;;;5064934;28;20972;-91
2022/10/01 04:16:15;;;;;;;9.50;7.67;;;12.80;61.30;;;;;;5097554;28;20535;-91
2022/10/01 04:18:42;;;;;;;9.33;6.97;;;12.90;61.10;;;;;;5082401;28;20804;-91
2022/10/01 04:21:11;;;;;;;9.40;7.53;;;12.90;61.70;;;;;;5094915;28;20447;-91
2022/10/01 04:23:38;;;;;;;11.00;7.67;;;13.00;61.80;;;;;;5113773;28;20534;-90
2022/10/01 04:26:07;;;;;;;10.97;7.67;;;13.20;60.10;;;;;;5081649;28;20509;-91
2022/10/01 04:28:34;;;;;;;8.33;6.63;;;13.20;61.20;;;;;;5081929;27;20447;-91
2022/10/01 04:33:41;;;;;;;13.10;8.07;;;12.80;62.70;;;;;;5074238;27;21203;-90
2022/10/01 04:36:08;;;;;;;9.83;6.90;;;12.80;63.10;;;;;;5100366;27;20463;-91
2022/10/01 04:38:35;;;;;;;12.40;7.70;;;12.80;62.20;;;;;;5076602;27;20467;-91
2022/10/01 04:41:02;;;;;;;8.50;6.73;;;12.90;63.00;;;;;;5084106;27;20450;-91
2022/10/01 04:43:31;;;;;;;9.57;7.10;;;13.00;62.10;;;;;;5083755;27;20464;-91
2022/10/01 04:45:58;;;;;;;10.33;7.30;;;13.00;61.60;;;;;;5067186;27;20453;-91
2022/10/01 04:48:25;;;;;;;8.77;6.97;;;13.00;61.40;;;;;;5085305;27;20447;-90
2022/10/01 04:50:52;;;;;;;11.27;7.30;;;12.90;61.60;;;;;;5088967;27;20537;-91
2022/10/01 04:53:19;;;;;;;14.67;9.77;;;13.10;61.00;;;;;;5090356;27;21569;-91
2022/10/01 04:55:46;;;;;;;13.63;9.63;;;13.20;60.70;;;;;;5064371;27;20557;-91
2022/10/01 04:58:13;;;;;;;10.30;8.63;;;13.10;60.30;;;;;;5090919;27;20473;-91
2022/10/01 05:00:41;;;;;;;12.13;9.40;;;13.10;59.90;;;;;;5120091;27;20941;-92
2022/10/01 05:03:08;;;;;;;14.80;10.57;;;13.00;60.60;;;;;;5106383;27;20448;-91
2022/10/01 05:05:36;;;;;;;12.03;8.87;;;13.00;60.50;;;;;;5094566;27;20494;-91
2022/10/01 05:08:03;;;;;;;11.57;8.63;;;12.90;61.00;;;;;;5079870;28;20539;-90
2022/10/01 05:10:30;;;;;;;15.50;10.20;;;12.80;62.10;;;;;;5094862;27;20450;-90
2022/10/01 05:13:01;;;;;;;10.93;7.80;;;12.60;63.20;;;;;;5090081;27;20483;-90
2022/10/01 05:15:29;;;;;;;15.73;10.90;;;12.60;63.20;;;;;;5082018;27;20515;-90
2022/10/01 05:17:58;;;;;;;10.13;8.63;;;12.80;62.70;;;;;;5084916;27;20461;-91
2022/10/01 05:20:27;;;;;;;9.97;8.23;;;13.10;62.10;;;;;;5095398;28;20561;-91
2022/10/01 05:22:55;;;;;;;15.00;9.87;;;13.20;61.40;;;;;;5088747;27;20960;-92
2022/10/01 05:25:22;;;;;;;9.17;7.40;;;13.20;61.10;;;;;;5099489;27;20993;-90
2022/10/01 05:27:50;;;;;;;7.87;6.80;;;13.30;60.90;;;;;;5103073;27;20529;-91
2022/10/01 05:30:22;;;;;;;8.13;5.87;;;13.50;60.70;;;;;;5118466;27;20545;-90
2022/10/01 05:32:58;;;;;;;8.07;6.93;;;13.60;60.50;;;;;;5117905;27;20965;-92
2022/10/01 05:35:26;;;;;;;9.17;7.77;;;13.60;60.20;;;;;;5091347;27;20484;-92
2022/10/01 05:37:54;;;;;;;14.53;8.67;;;13.60;60.20;;;;;;5106002;27;20459;-91
2022/10/01 05:40:23;;;;;;;12.33;6.97;;;13.60;60.20;;;;;;5094710;28;20514;-91
2022/10/01 05:42:50;;;;;;;11.63;7.30;;;13.70;60.60;;;;;;5096417;27;20541;-91
2022/10/01 05:45:20;;;;;;;9.50;6.90;;;13.70;60.00;;;;;;5079033;27;21911;-89
2022/10/01 05:47:48;;;;;;;13.13;6.60;;;13.80;60.70;;;;;;5096880;27;20501;-89
2022/10/01 05:50:17;;;;;;;9.00;5.90;;;13.70;60.60;;;;;;5095756;27;20511;-90
2022/10/01 05:52:52;;;;;;;8.40;5.90;;;13.80;60.00;;;;;;5089376;27;20746;-88
2022/10/01 05:55:19;;;;;;;7.17;6.13;;;13.80;60.30;;;;;;5116886;27;20478;-87
2022/10/01 05:57:53;;;;;;;15.90;6.20;;;13.60;61.50;;;;;;5114986;27;20465;-89
2022/10/01 06:00:21;;;;;;;6.03;4.00;;;13.40;62.70;;;;;;5079998;27;20442;-90
2022/10/01 06:02:51;;;;;;;5.70;4.10;;;13.20;63.80;;;;;;5098703;27;20539;-90
2022/10/01 06:05:20;;;;;;;6.83;5.10;;;13.20;64.20;;;;;;5095499;27;20462;-90
2022/10/01 06:07:48;;;;;;;6.20;4.57;;;13.20;64.20;;;;;;5116072;27;20431;-91
2022/10/01 06:10:15;;;;;;;4.97;4.20;;;13.20;65.20;;;;;;5065770;27;20528;-90
2022/10/01 06:12:42;;;;;;;3.67;3.37;;;13.30;64.40;;;;;;5064116;27;20450;-90
2022/10/01 06:15:10;;;;;;;6.77;3.83;;;13.20;64.80;;;;;;5113631;27;20468;-91
2022/10/01 06:17:42;;;;;;;4.50;4.10;;;13.00;65.50;;;;;;5094728;27;20620;-90
2022/10/01 06:20:12;;;;;;;7.17;4.13;;;13.30;64.90;;;;;;5078390;27;20448;-90
2022/10/01 06:22:41;;;;;;;3.67;3.10;;;13.30;64.60;;;;;;5077419;27;20525;-89
2022/10/01 06:25:09;;;;;;;4.40;3.20;;;13.30;63.80;;;;;;5071086;27;21253;-91
2022/10/01 06:27:36;;;;;;;3.80;3.50;;;13.20;64.50;;;;;;5094269;27;20466;-87
2022/10/01 06:30:04;;;;;;;3.63;3.17;;;13.40;64.80;;;;;;5086634;27;20449;-90
2022/10/01 06:32:31;;;;;;;4.70;3.60;;;13.50;64.20;;;;;;5069846;27;20442;-89
2022/10/01 06:34:58;;;;;;;6.83;5.27;;;13.70;64.20;;;;;;5113901;27;20462;-89
2022/10/01 06:37:25;;;;;;;10.27;9.20;;;13.90;64.10;;;;;;5098013;27;20822;-89
2022/10/01 06:39:53;;;;;;;4.23;3.83;;;14.00;63.20;;;;;;5098879;27;20454;-89
2022/10/01 06:42:21;;;;;;;8.20;6.97;;;13.80;62.90;;;;;;5104186;27;20978;-91
2022/10/01 06:44:48;;;;;;;16.33;13.83;;;13.90;63.00;;;;;;5080737;27;20473;-92
2022/10/01 06:47:15;;;;;;;7.37;6.00;;;14.10;62.60;;;;;;5079500;27;20439;-90
2022/10/01 06:49:42;;;;;;;5.80;4.90;;;14.30;62.30;;;;;;5095320;27;20447;-90
2022/10/01 06:54:55;;;;;;;4.20;3.73;;;14.40;62.20;;;;;;5067239;27;20900;-89
2022/10/01 06:57:22;;;;;;;7.37;4.60;;;14.40;61.60;;;;;;5091204;27;20840;-90
2022/10/01 06:59:50;;;;;;;8.07;5.07;;;14.30;61.60;;;;;;5075169;28;20455;-90
2022/10/01 07:02:27;;;;;;;5.80;4.30;;;14.40;61.90;;;;;;5068547;27;20457;-88
2022/10/01 07:04:57;;;;;;;5.17;3.80;;;14.40;61.50;;;;;;5080509;28;20457;-88
2022/10/01 07:07:25;;;;;;;3.50;3.20;;;14.50;61.80;;;;;;5081526;27;20437;-87
2022/10/01 07:09:52;;;;;;;6.93;6.10;;;14.40;61.50;;;;;;5082291;28;20445;-89
2022/10/01 07:12:20;;;;;;;3.93;2.77;;;14.30;62.10;;;;;;5094357;27;20526;-88
2022/10/01 07:14:47;;;;;;;4.50;3.47;;;13.90;62.10;;;;;;5076800;28;21300;-89
2022/10/01 07:17:14;;;;;;;4.43;3.30;;;13.70;64.50;;;;;;5085495;28;20462;-89
2022/10/01 07:19:41;;;;;;;7.33;3.63;;;13.80;65.00;;;;;;5079370;28;20456;-90
2022/10/01 07:22:08;;;;;;;5.20;3.40;;;14.00;64.60;;;;;;5077498;28;20447;-88
2022/10/01 07:24:35;;;;;;;18.13;8.73;;;14.10;64.30;;;;;;5082430;28;20482;-88
2022/10/01 07:27:02;;;;;;;15.57;5.83;;;14.10;63.40;;;;;;5113357;27;20460;-89
2022/10/01 07:29:31;;;;;;;5.40;3.30;;;14.00;64.20;;;;;;5114774;27;20529;-90
2022/10/01 07:31:59;;;;;;;4.93;3.37;;;14.10;64.20;;;;;;5096677;28;20454;-89
2022/10/01 07:34:27;;;;;;;3.97;3.40;;;14.00;64.90;;;;;;5082574;28;20478;-89
2022/10/01 07:36:55;;;;;;;11.13;5.70;;;14.10;64.00;;;;;;5088726;28;20450;-89
2022/10/01 07:39:22;;;;;;;5.90;5.30;;;14.10;64.10;;;;;;5099409;28;20819;-89
2022/10/01 07:41:50;;;;;;;22.37;11.13;;;14.20;63.60;;;;;;5117689;28;20453;-89
2022/10/01 07:44:17;;;;;;;26.03;10.87;;;14.30;63.70;;;;;;5079367;28;21020;-88
2022/10/01 07:46:47;;;;;;;21.70;9.30;;;14.30;63.50;;;;;;5087585;28;20526;-88
2022/10/01 07:49:15;;;;;;;5.53;3.70;;;14.30;64.30;;;;;;5101360;28;20863;-88
2022/10/01 07:51:43;;;;;;;5.97;3.30;;;14.30;63.60;;;;;;5079669;28;20619;-89
2022/10/01 07:54:10;;;;;;;3.30;3.00;;;14.20;64.10;;;;;;5103038;28;20475;-88
2022/10/01 07:56:38;;;;;;;4.10;3.70;;;14.00;63.40;;;;;;5080728;28;20442;-88
2022/10/01 07:59:06;;;;;;;4.40;3.77;;;14.10;64.60;;;;;;5059060;28;20547;-88
2022/10/01 08:01:33;;;;;;;4.60;3.80;;;14.20;64.60;;;;;;5097869;28;20955;-88
2022/10/01 08:05:16;;;;;;;5.03;4.53;;;14.40;64.50;;;;;;5083352;27;20441;-88
2022/10/01 08:06:50;;;;;;;5.87;4.23;;;14.40;63.90;;;;;;5085819;27;20537;-89
2022/10/01 08:09:17;;;;;;;4.23;3.50;;;14.40;64.00;;;;;;5100877;27;21040;-90
2022/10/01 08:11:47;;;;;;;4.63;4.23;;;14.50;64.60;;;;;;5096183;27;20454;-88
2022/10/01 08:14:15;;;;;;;4.30;3.53;;;14.50;63.80;;;;;;5087899;27;20473;-89
2022/10/01 08:16:42;;;;;;;3.27;3.00;;;14.60;63.80;;;;;;5100447;27;20473;-90
2022/10/01 08:19:11;;;;;;;6.40;5.73;;;14.70;63.50;;;;;;5081681;27;20476;-88
2022/10/01 08:21:38;;;;;;;6.53;3.43;;;14.70;63.60;;;;;;5101447;27;20439;-90
2022/10/01 08:24:05;;;;;;;4.37;3.20;;;14.60;63.30;;;;;;5107552;27;21105;-88
2022/10/01 08:26:33;;;;;;;4.67;4.23;;;14.60;63.20;;;;;;5087070;27;20450;-88
2022/10/01 08:29:00;;;;;;;4.37;3.90;;;14.20;65.00;;;;;;5092471;27;20491;-89
2022/10/01 08:31:27;;;;;;;3.93;3.27;;;14.00;65.50;;;;;;5076478;27;20448;-88
2022/10/01 08:33:54;;;;;;;5.87;3.97;;;14.10;65.80;;;;;;5105023;27;20463;-88
2022/10/01 08:36:22;;;;;;;9.50;5.10;;;14.20;65.40;;;;;;5085648;27;20465;-88
2022/10/01 08:38:49;;;;;;;3.83;3.50;;;14.10;65.80;;;;;;5086331;27;20470;-88
2022/10/01 08:41:29;;;;;;;6.40;5.80;;;14.00;66.00;;;;;;5101422;27;20450;-88
2022/10/01 08:43:57;;;;;;;3.20;2.87;;;14.10;65.90;;;;;;5070243;27;20493;-88
2022/10/01 08:46:33;;;;;;;4.17;3.77;;;14.00;66.20;;;;;;5117078;27;20846;-88
2022/10/01 08:49:08;;;;;;;3.20;2.67;;;14.30;66.10;;;;;;5118096;27;20539;-88
2022/10/01 08:51:41;;;;;;;3.77;3.47;;;14.00;66.80;;;;;;5117494;27;20472;-88
2022/10/01 08:54:23;;;;;;;6.83;6.03;;;14.00;66.70;;;;;;5086335;27;20542;-88
2022/10/01 08:56:51;;;;;;;5.70;5.17;;;14.30;66.90;;;;;;5093137;27;20534;-88
2022/10/01 08:59:35;;;;;;;5.03;4.53;;;14.40;66.20;;;;;;5084884;27;20462;-86
2022/10/01 09:02:02;;;;;;;4.03;3.60;;;14.40;66.30;;;;;;5120897;27;20442;-88
2022/10/01 09:04:29;;;;;;;3.40;2.87;;;14.40;67.40;;;;;;5117108;27;20516;-86
2022/10/01 09:07:04;;;;;;;4.63;3.10;;;14.40;66.50;;;;;;5123735;27;20799;-89
2022/10/01 09:09:44;;;;;;;3.87;3.40;;;14.50;66.10;;;;;;5085878;27;20534;-88
2022/10/01 09:12:26;;;;;;;6.37;4.40;;;14.60;65.80;;;;;;5091031;27;20776;-90
2022/10/01 09:15:04;;;;;;;2.63;2.40;;;14.40;65.80;;;;;;5102797;27;20466;-90
2022/10/01 09:17:44;;;;;;;6.20;2.67;;;14.40;66.40;;;;;;5104386;28;20439;-89
2022/10/01 09:20:20;;;;;;;2.80;2.50;;;14.20;66.70;;;;;;5102612;27;20551;-89
2022/10/01 09:23:02;;;;;;;2.67;2.47;;;14.30;67.50;;;;;;5104733;27;20441;-89
2022/10/01 09:25:30;;;;;;;6.30;2.87;;;14.40;67.60;;;;;;5108896;27;20518;-89
2022/10/01 09:28:02;;;;;;;3.80;3.50;;;14.50;67.10;;;;;;5119215;27;20447;-89
2022/10/01 09:30:31;;;;;;;3.63;3.33;;;14.50;66.70;;;;;;5109543;27;20447;-89
2022/10/01 09:33:03;;;;;;;6.80;6.10;;;14.50;67.60;;;;;;5092116;27;20454;-90
2022/10/01 09:35:40;;;;;;;2.40;2.20;;;14.60;66.60;;;;;;5102154;27;20471;-89
2022/10/01 09:38:16;;;;;;;2.10;2.00;;;14.50;67.10;;;;;;5087315;27;20462;-89
2022/10/01 09:40:52;;;;;;;2.83;2.63;;;14.50;66.60;;;;;;5122300;27;20538;-89
2022/10/01 09:43:20;;;;;;;3.23;2.87;;;14.40;67.30;;;;;;5102876;27;20449;-88
2022/10/01 09:45:47;;;;;;;3.57;2.67;;;14.60;67.00;;;;;;5101368;27;20855;-89
2022/10/01 09:48:22;;;;;;;2.70;2.50;;;14.70;66.70;;;;;;5069857;27;20450;-90
2022/10/01 09:50:54;;;;;;;5.40;3.00;;;14.60;66.40;;;;;;5084651;27;20442;-89
2022/10/01 09:53:28;;;;;;;4.40;3.00;;;14.60;66.20;;;;;;5116787;27;20548;-89
2022/10/01 09:56:00;;;;;;;2.57;2.37;;;14.60;66.40;;;;;;5087129;27;20545;-90
2022/10/01 09:58:29;;;;;;;3.40;3.17;;;14.50;67.50;;;;;;5084048;27;20462;-89
2022/10/01 10:00:58;;;;;;;3.00;2.77;;;14.60;67.20;;;;;;5100610;27;20821;-90
2022/10/01 10:03:29;;;;;;;3.80;3.40;;;14.40;67.60;;;;;;5098305;28;20447;-89
2022/10/01 10:05:58;;;;;;;2.20;2.00;;;14.60;67.40;;;;;;5102868;27;21004;-89
2022/10/01 10:08:30;;;;;;;5.70;4.13;;;14.70;67.30;;;;;;5085980;27;21001;-91
2022/10/01 10:11:00;;;;;;;9.40;2.70;;;14.80;67.40;;;;;;5108402;27;20474;-88
2022/10/01 10:13:33;;;;;;;3.30;2.37;;;14.90;67.30;;;;;;5084403;27;20451;-89
2022/10/01 10:16:09;;;;;;;3.33;3.03;;;15.00;66.80;;;;;;5098845;27;20523;-89
2022/10/01 10:18:38;;;;;;;2.00;1.90;;;14.80;67.00;;;;;;5088464;27;20485;-89
2022/10/01 10:21:13;;;;;;;2.97;2.70;;;14.90;67.70;;;;;;5086025;27;20824;-89
2022/10/01 10:23:50;;;;;;;3.60;2.50;;;15.10;66.80;;;;;;5086106;27;20865;-90
2022/10/01 10:26:27;;;;;;;12.33;8.43;;;15.10;67.10;;;;;;5100743;27;20518;-89
2022/10/01 10:28:55;;;;;;;6.90;5.17;;;15.10;67.10;;;;;;5088587;27;20430;-89
2022/10/01 10:31:24;;;;;;;5.10;1.80;;;15.20;67.10;;;;;;5092135;27;20442;-90
2022/10/01 10:33:56;;;;;;;3.00;1.67;;;15.20;66.70;;;;;;5102081;27;20463;-90
2022/10/01 10:36:28;;;;;;;2.70;1.70;;;15.10;66.60;;;;;;5099947;28;20459;-90
2022/10/01 10:38:58;;;;;;;2.13;2.03;;;15.10;66.70;;;;;;5088672;27;20909;-89
2022/10/01 10:41:27;;;;;;;1.87;1.67;;;15.20;66.70;;;;;;5096720;28;20496;-90
2022/10/01 10:43:59;;;;;;;3.60;1.53;;;15.10;67.20;;;;;;5101895;27;20458;-91
2022/10/01 10:46:30;;;;;;;5.00;3.13;;;15.30;66.80;;;;;;5087637;28;20458;-89
2022/10/01 10:49:05;;;;;;;4.83;4.43;;;15.40;66.70;;;;;;5086881;27;20556;-87
2022/10/01 10:51:47;;;;;;;11.90;10.70;;;15.20;66.90;;;;;;5084027;27;20458;-89
2022/10/01 10:54:20;;;;;;;3.00;2.50;;;15.30;67.60;;;;;;5067119;27;20434;-90
2022/10/01 10:57:01;;;;;;;5.13;4.73;;;15.40;66.40;;;;;;5074920;27;20499;-89
2022/10/01 10:59:30;;;;;;;1.70;1.60;;;15.20;67.30;;;;;;5083077;27;20458;-90
2022/10/01 11:01:58;;;;;;;2.83;2.60;;;15.30;67.40;;;;;;5098639;28;20528;-87
2022/10/01 11:04:38;;;;;;;2.40;2.20;;;15.30;67.20;;;;;;5101138;27;20467;-89
2022/10/01 11:07:05;;;;;;;2.10;1.90;;;15.40;67.20;;;;;;5106334;27;21233;-90
2022/10/01 11:09:44;;;;;;;2.93;2.27;;;15.40;66.90;;;;;;5116112;27;20945;-90
2022/10/01 11:12:20;;;;;;;3.60;2.13;;;15.30;67.80;;;;;;5100871;27;20859;-90
2022/10/01 11:15:04;;;;;;;1.73;1.63;;;15.30;67.80;;;;;;5096531;27;20458;-90
2022/10/01 11:17:54;;;;;;;2.80;2.60;;;15.60;67.50;;;;;;5088332;27;20434;-89
2022/10/01 11:20:33;;;;;;;2.13;2.03;;;15.70;67.30;;;;;;5094711;27;21083;-87
2022/10/01 11:23:14;;;;;;;2.97;2.77;;;15.70;67.60;;;;;;5092259;27;21044;-90
2022/10/01 11:25:52;;;;;;;3.20;3.00;;;15.90;66.70;;;;;;5079741;28;20465;-89
2022/10/01 11:28:32;;;;;;;2.17;2.07;;;15.60;66.50;;;;;;5110351;27;20443;-87
2022/10/01 11:31:11;;;;;;;2.33;2.23;;;15.60;68.60;;;;;;5083562;28;20451;-89
2022/10/01 11:33:45;;;;;;;2.33;1.97;;;15.50;68.20;;;;;;5081704;28;20544;-88
2022/10/01 11:36:21;;;;;;;2.50;2.30;;;15.40;68.60;;;;;;5080969;28;20492;-88
2022/10/01 11:38:54;;;;;;;2.27;2.07;;;15.50;69.10;;;;;;5077404;27;20981;-89
2022/10/01 11:41:31;;;;;;;1.77;1.67;;;15.60;68.10;;;;;;5105470;27;20787;-87
2022/10/01 11:44:02;;;;;;;1.73;1.63;;;15.70;68.60;;;;;;5113809;27;20544;-87
2022/10/01 11:46:41;;;;;;;4.40;1.30;;;15.90;67.10;;;;;;5071940;27;20489;-89
2022/10/01 11:49:28;;;;;;;1.50;1.40;;;16.10;67.40;;;;;;5092969;27;20678;-90
2022/10/01 11:52:06;;;;;;;1.47;1.37;;;16.00;67.10;;;;;;5103927;27;20443;-90
2022/10/01 11:54:36;;;;;;;1.70;1.60;;;16.10;66.70;;;;;;5112918;27;21188;-88
2022/10/01 12:00:05;;;;;;;2.23;2.07;;;16.10;66.80;;;;;;5097761;27;20469;-90
2022/10/01 12:02:48;;;;;;;2.93;2.00;;;16.10;67.10;;;;;;5114438;27;20465;-86
2022/10/01 12:05:18;;;;;;;2.57;2.37;;;16.30;66.50;;;;;;5112384;27;20584;-90
2022/10/01 12:07:49;;;;;;;4.30;2.60;;;16.30;66.30;;;;;;5095826;27;21211;-90
2022/10/01 12:10:27;;;;;;;2.70;2.50;;;16.30;66.20;;;;;;5096796;27;20809;-90
2022/10/01 12:13:01;;;;;;;2.37;2.17;;;16.30;66.40;;;;;;5115549;27;20453;-90
2022/10/01 12:15:32;;;;;;;2.67;2.47;;;16.20;66.50;;;;;;5114869;27;20468;-88
2022/10/01 12:18:04;;;;;;;2.20;2.10;;;16.10;67.10;;;;;;5096653;27;21023;-89
2022/10/01 12:20:36;;;;;;;2.37;2.20;;;16.10;67.90;;;;;;5097502;27;20454;-89
2022/10/01 12:23:05;;;;;;;80.53;32.23;;;15.90;67.90;;;;;;5079337;27;20450;-88
2022/10/01 12:25:40;;;;;;;545.57;197.30;;;15.90;68.40;;;;;;5104722;27;20699;-89
2022/10/01 12:28:14;;;;;;;58.07;38.33;;;16.10;67.90;;;;;;5071124;27;20456;-88
2022/10/01 12:30:46;;;;;;;6.20;5.60;;;16.00;68.00;;;;;;5086408;27;20442;-89
2022/10/01 12:33:34;;;;;;;5.70;5.20;;;16.00;67.50;;;;;;5104438;27;20466;-89
2022/10/01 12:36:07;;;;;;;3.37;2.77;;;16.00;68.00;;;;;;5115504;27;20476;-89
2022/10/01 12:38:45;;;;;;;2.00;1.90;;;16.20;67.30;;;;;;5082290;27;20442;-89
2022/10/01 12:41:28;;;;;;;2.57;2.47;;;16.10;67.40;;;;;;5081420;27;20439;-89
2022/10/01 12:44:21;;;;;;;4.20;2.80;;;16.10;67.60;;;;;;5084754;27;20449;-87
2022/10/01 12:46:57;;;;;;;3.13;2.70;;;16.00;67.50;;;;;;5080837;27;20457;-88
2022/10/01 12:49:31;;;;;;;6.23;3.30;;;16.10;67.90;;;;;;5097078;27;21001;-89
2022/10/01 12:52:04;;;;;;;2.30;2.10;;;16.20;66.90;;;;;;5098803;27;20442;-90
2022/10/01 12:55:08;;;;;;;4.50;3.30;;;16.20;67.20;;;;;;5096255;27;20462;-89
2022/10/01 12:57:46;;;;;;;2.00;1.90;;;16.30;66.90;;;;;;5065539;27;20953;-90
2022/10/01 13:00:19;;;;;;;3.40;3.10;;;16.20;66.70;;;;;;5099002;27;20478;-89
2022/10/01 13:03:11;;;;;;;3.40;1.97;;;16.30;67.10;;;;;;5097518;27;20444;-89
2022/10/01 13:05:48;;;;;;;3.47;1.40;;;16.50;66.50;;;;;;5096987;27;20454;-89
2022/10/01 13:08:31;;;;;;;1.73;1.50;;;16.40;65.60;;;;;;5097634;27;20443;-89
2022/10/01 13:11:05;;;;;;;2.53;2.10;;;16.50;65.70;;;;;;5110876;27;20481;-89